METAR Data
IDs: Format: Raw Decoded Include TAF

Data at: 0115 UTC 12 May 2021

METAR for:TISX (St Croix/Rohlsen Arp, VI, US)
Text:TISX 120053Z 08012KT 10SM SCT025 27/22 A3005 RMK AO2 SLP175 T02670222
Temperature: 26.7°C ( 80°F)
Dewpoint: 22.2°C ( 72°F) [RH = 76%]
Pressure (altimeter):30.05 inches Hg (1017.7 mb) [Sea level pressure: 1017.5 mb]
Winds:from the E (80 degrees) at 14 MPH (12 knots; 6.2 m/s)
Visibility:10 or more sm (16+ km)
Ceiling:at least 12,000 feet AGL
Clouds: scattered clouds at 2500 feet AGL